createdAt,value
2023-02-03T00:00:10.734Z,9.10
2023-02-03T00:02:50.101Z,8.60
2023-02-03T00:05:23.061Z,8.20
2023-02-03T00:07:53.602Z,9.40
2023-02-03T00:10:27.884Z,8.60
2023-02-03T00:12:59.902Z,7.60
2023-02-03T00:15:34.502Z,12.50
2023-02-03T00:18:15.009Z,10.40
2023-02-03T00:20:45.435Z,8.20
2023-02-03T00:23:18.953Z,9.40
2023-02-03T00:25:48.542Z,8.70
2023-02-03T00:28:21.060Z,13.90
2023-02-03T00:30:53.599Z,14.40
2023-02-03T00:33:26.006Z,13.90
2023-02-03T00:35:57.415Z,14.30
2023-02-03T00:38:27.747Z,17.40
2023-02-03T00:40:55.011Z,20.90
2023-02-03T00:43:31.661Z,15.80
2023-02-03T00:45:59.280Z,14.80
2023-02-03T00:48:28.789Z,20.00
2023-02-03T00:50:58.487Z,15.30
2023-02-03T00:53:28.337Z,10.00
2023-02-03T00:55:57.082Z,12.10
2023-02-03T00:58:29.193Z,13.10
2023-02-03T01:01:03.372Z,12.30
2023-02-03T01:03:37.942Z,11.60
2023-02-03T01:06:17.695Z,12.40
2023-02-03T01:08:44.789Z,13.00
2023-02-03T01:11:15.245Z,14.00
2023-02-03T01:13:47.746Z,11.70
2023-02-03T01:16:21.770Z,10.60
2023-02-03T01:18:52.362Z,10.00
2023-02-03T01:21:24.903Z,10.50
2023-02-03T01:23:55.025Z,12.70
2023-02-03T01:26:24.394Z,10.60
2023-02-03T01:28:57.260Z,9.90
2023-02-03T01:31:30.281Z,9.70
2023-02-03T01:34:03.074Z,8.40
2023-02-03T01:36:36.740Z,9.40
2023-02-03T01:39:06.515Z,9.00
2023-02-03T01:41:39.021Z,9.20
2023-02-03T01:44:40.556Z,8.30
2023-02-03T01:47:34.142Z,9.30
2023-02-03T01:51:02.080Z,8.80
2023-02-03T01:54:30.841Z,9.00
2023-02-03T01:57:26.642Z,11.30
2023-02-03T02:00:17.950Z,8.90
2023-02-03T02:02:47.984Z,11.00
2023-02-03T02:05:33.975Z,9.80
2023-02-03T02:08:04.922Z,10.30
2023-02-03T02:10:38.026Z,11.90
2023-02-03T02:13:05.314Z,11.20
2023-02-03T02:15:55.243Z,8.80
2023-02-03T02:18:38.086Z,10.60
2023-02-03T02:21:26.726Z,9.30
2023-02-03T02:24:08.714Z,11.70
2023-02-03T02:27:05.400Z,8.50
2023-02-03T02:29:40.826Z,9.30
2023-02-03T02:32:22.403Z,9.30
2023-02-03T02:35:43.240Z,11.00
2023-02-03T02:38:35.093Z,14.20
2023-02-03T02:41:30.294Z,13.30
2023-02-03T02:44:07.056Z,12.00
2023-02-03T02:46:42.106Z,13.10
2023-02-03T02:49:26.979Z,11.40
2023-02-03T02:51:59.609Z,12.70
2023-02-03T02:54:29.441Z,12.90
2023-02-03T02:56:59.507Z,11.50
2023-02-03T02:59:32.732Z,11.30
2023-02-03T03:02:01.883Z,13.30
2023-02-03T03:04:31.622Z,12.80
2023-02-03T03:07:05.156Z,15.70
2023-02-03T03:09:48.583Z,16.00
2023-02-03T03:12:23.529Z,17.60
2023-02-03T03:15:07.577Z,18.50
2023-02-03T03:17:39.586Z,15.70
2023-02-03T03:20:14.248Z,19.10
2023-02-03T03:22:46.976Z,20.80
2023-02-03T03:28:32.870Z,19.60
2023-02-03T03:31:27.354Z,21.60
2023-02-03T03:33:57.932Z,16.60
2023-02-03T03:36:39.989Z,15.40
2023-02-03T03:39:35.613Z,15.70
2023-02-03T03:42:16.587Z,15.80
2023-02-03T03:45:14.239Z,21.30
2023-02-03T03:48:09.870Z,19.60
2023-02-03T03:50:46.252Z,19.00
2023-02-03T03:53:17.716Z,20.00
2023-02-03T03:55:49.621Z,18.30
2023-02-03T03:58:23.166Z,13.20
2023-02-03T04:00:58.688Z,17.70
2023-02-03T04:03:32.597Z,21.50
2023-02-03T04:06:02.484Z,27.50
2023-02-03T04:08:31.642Z,22.30
2023-02-03T04:11:01.605Z,21.40
2023-02-03T04:13:29.371Z,20.50
2023-02-03T04:15:58.387Z,23.40
2023-02-03T04:18:30.553Z,20.70
2023-02-03T04:21:07.571Z,20.10
2023-02-03T04:23:35.567Z,15.80
2023-02-03T04:26:06.508Z,20.20
2023-02-03T04:28:40.301Z,15.30
2023-02-03T04:31:10.995Z,13.40
2023-02-03T04:33:41.777Z,13.60
2023-02-03T04:36:12.916Z,15.50
2023-02-03T04:38:45.399Z,16.20
2023-02-03T04:43:15.360Z,13.60
2023-02-03T04:45:47.066Z,11.30
2023-02-03T04:48:21.967Z,13.70
2023-02-03T04:50:50.995Z,27.60
2023-02-03T04:53:24.161Z,23.20
2023-02-03T04:55:55.804Z,36.20
2023-02-03T04:58:29.418Z,39.60
2023-02-03T05:00:58.181Z,37.80
2023-02-03T05:03:57.273Z,46.80
2023-02-03T05:06:33.045Z,45.50
2023-02-03T05:09:02.409Z,36.20
2023-02-03T05:11:36.303Z,35.00
2023-02-03T05:14:07.581Z,25.10
2023-02-03T05:16:41.596Z,24.00
2023-02-03T05:19:11.348Z,25.70
2023-02-03T05:21:45.231Z,26.00
2023-02-03T05:24:14.200Z,28.00
2023-02-03T05:26:46.262Z,25.30
2023-02-03T05:29:15.556Z,24.80
2023-02-03T05:31:52.378Z,29.10
2023-02-03T05:34:22.276Z,29.70
2023-02-03T05:36:57.741Z,31.50
2023-02-03T05:39:31.194Z,29.90
2023-02-03T05:42:05.291Z,31.20
2023-02-03T05:44:36.595Z,36.40
2023-02-03T05:47:09.009Z,38.90
2023-02-03T05:49:42.995Z,42.60
2023-02-03T05:52:17.283Z,38.30
2023-02-03T05:54:55.396Z,44.00
2023-02-03T05:57:48.723Z,43.10
2023-02-03T06:00:35.214Z,38.40
2023-02-03T06:03:06.107Z,29.80
2023-02-03T06:05:41.083Z,24.10
2023-02-03T06:08:11.500Z,22.10
2023-02-03T06:10:45.367Z,24.80
2023-02-03T06:13:48.709Z,17.40
2023-02-03T06:16:25.015Z,15.30
2023-02-03T06:18:55.941Z,18.60
2023-02-03T06:21:32.621Z,16.60
2023-02-03T06:24:07.654Z,17.90
2023-02-03T06:26:40.124Z,22.20
2023-02-03T06:29:13.406Z,22.70
2023-02-03T06:31:45.982Z,19.60
2023-02-03T06:34:15.886Z,20.60
2023-02-03T06:38:38.942Z,20.00
2023-02-03T06:42:54.563Z,19.90
2023-02-03T06:45:25.109Z,21.10
2023-02-03T06:47:53.973Z,22.20
2023-02-03T06:50:26.652Z,19.30
2023-02-03T06:52:54.539Z,19.20
2023-02-03T06:55:27.010Z,15.40
2023-02-03T06:57:57.272Z,22.80
2023-02-03T07:00:25.319Z,28.30
2023-02-03T07:02:57.787Z,29.80
2023-02-03T07:05:27.448Z,26.10
2023-02-03T07:07:59.648Z,26.20
2023-02-03T07:10:30.626Z,36.90
2023-02-03T07:13:07.149Z,28.30
2023-02-03T07:15:40.479Z,25.80
2023-02-03T07:18:10.099Z,31.50
2023-02-03T07:20:41.783Z,29.00
2023-02-03T07:23:16.239Z,28.90
2023-02-03T07:25:46.523Z,26.00
2023-02-03T07:28:18.819Z,28.30
2023-02-03T07:34:00.911Z,29.80
2023-02-03T07:36:28.732Z,28.60
2023-02-03T07:38:58.416Z,30.90
2023-02-03T07:41:31.494Z,35.20
2023-02-03T07:44:02.835Z,36.30
2023-02-03T07:46:33.108Z,35.90
2023-02-03T07:49:03.920Z,39.90
2023-02-03T07:51:36.049Z,34.80
2023-02-03T07:54:08.401Z,33.30
2023-02-03T07:56:37.078Z,25.70
2023-02-03T07:59:08.513Z,22.90
2023-02-03T08:01:38.677Z,24.90
2023-02-03T08:04:16.641Z,22.90
2023-02-03T08:06:44.007Z,22.50
2023-02-03T08:09:24.643Z,25.90
2023-02-03T08:11:53.235Z,17.70
2023-02-03T08:14:26.621Z,20.30
2023-02-03T08:16:56.530Z,17.10
2023-02-03T08:19:38.419Z,20.10
2023-02-03T08:22:09.351Z,15.70
2023-02-03T08:24:38.411Z,15.20
2023-02-03T08:27:06.868Z,14.50
2023-02-03T08:29:38.797Z,16.80
2023-02-03T08:32:19.791Z,19.10
2023-02-03T08:34:54.924Z,20.70
2023-02-03T08:37:25.103Z,28.90
2023-02-03T08:39:55.735Z,30.90
2023-02-03T08:42:25.713Z,18.80
2023-02-03T08:45:04.871Z,22.80
2023-02-03T08:47:32.833Z,23.40
2023-02-03T08:50:03.702Z,19.60
2023-02-03T08:52:34.191Z,16.00
2023-02-03T08:55:06.095Z,17.40
2023-02-03T09:00:08.670Z,16.80
2023-02-03T09:02:41.693Z,14.00
2023-02-03T09:07:41.042Z,16.80
2023-02-03T09:10:11.660Z,16.20
2023-02-03T09:12:43.595Z,13.70
2023-02-03T09:15:17.199Z,13.70
2023-02-03T09:17:49.737Z,15.90
2023-02-03T09:20:18.932Z,22.50
2023-02-03T09:22:47.752Z,19.00
2023-02-03T09:25:16.349Z,19.80
2023-02-03T09:27:54.771Z,20.00
2023-02-03T09:30:28.090Z,20.90
2023-02-03T09:32:57.712Z,14.00
2023-02-03T09:35:26.949Z,16.60
2023-02-03T09:38:04.403Z,14.70
2023-02-03T09:40:35.859Z,15.00
2023-02-03T09:43:23.158Z,16.10
2023-02-03T09:45:54.495Z,18.60
2023-02-03T09:48:26.020Z,12.80
2023-02-03T09:50:54.778Z,16.30
2023-02-03T09:53:33.189Z,17.10
2023-02-03T09:56:11.000Z,12.70
2023-02-03T09:58:42.746Z,14.40
2023-02-03T10:01:18.293Z,14.10
2023-02-03T10:04:26.602Z,19.60
2023-02-03T10:07:28.715Z,20.50
2023-02-03T10:10:20.771Z,30.80
2023-02-03T10:12:58.994Z,18.30
2023-02-03T10:15:33.859Z,17.50
2023-02-03T10:18:11.247Z,16.20
2023-02-03T10:20:47.231Z,19.20
2023-02-03T10:23:38.169Z,17.10
2023-02-03T10:26:09.032Z,20.80
2023-02-03T10:28:41.785Z,18.30
2023-02-03T10:31:18.524Z,16.40
2023-02-03T10:33:47.223Z,14.90
2023-02-03T10:37:11.785Z,16.40
2023-02-03T10:39:44.362Z,13.70
2023-02-03T10:42:15.358Z,14.80
2023-02-03T10:44:57.879Z,14.20
2023-02-03T10:47:39.784Z,11.60
2023-02-03T10:50:22.215Z,14.40
2023-02-03T10:53:26.929Z,16.30
2023-02-03T10:56:10.337Z,18.50
2023-02-03T10:58:39.742Z,16.30
2023-02-03T11:01:16.913Z,16.00
2023-02-03T11:03:57.777Z,14.60
2023-02-03T11:06:28.891Z,14.50
2023-02-03T11:08:58.041Z,15.30
2023-02-03T11:11:31.591Z,17.40
2023-02-03T11:14:03.187Z,17.00
2023-02-03T11:16:34.988Z,17.30
2023-02-03T11:19:23.551Z,14.50
2023-02-03T11:21:57.005Z,14.00
2023-02-03T11:24:54.139Z,12.70
2023-02-03T11:27:24.533Z,12.90
2023-02-03T11:30:08.132Z,12.80
2023-02-03T11:35:29.242Z,15.20
2023-02-03T11:38:01.055Z,14.60
2023-02-03T11:40:30.667Z,16.80
2023-02-03T11:43:03.010Z,15.90
2023-02-03T11:45:43.060Z,15.00
2023-02-03T11:48:35.744Z,11.20
2023-02-03T11:51:34.780Z,12.70
2023-02-03T11:54:32.179Z,15.50
2023-02-03T11:57:52.220Z,12.10
2023-02-03T12:01:11.007Z,15.60
2023-02-03T12:04:15.607Z,14.60
2023-02-03T12:07:19.910Z,13.90
2023-02-03T12:10:32.541Z,17.10
2023-02-03T12:13:23.453Z,17.20
2023-02-03T12:16:05.272Z,20.10
2023-02-03T12:18:41.494Z,18.00
2023-02-03T12:21:24.785Z,19.00
2023-02-03T12:24:06.181Z,14.30
2023-02-03T12:26:58.992Z,19.40
2023-02-03T12:29:55.770Z,20.40
2023-02-03T12:32:40.677Z,23.90
2023-02-03T12:35:18.353Z,17.60
2023-02-03T12:37:57.185Z,14.90
2023-02-03T12:40:49.455Z,13.80
2023-02-03T12:43:52.155Z,14.90
2023-02-03T12:47:13.838Z,9.70
2023-02-03T12:50:22.871Z,11.20
2023-02-03T12:53:17.104Z,13.20
2023-02-03T12:56:12.635Z,15.00
2023-02-03T12:58:52.228Z,16.80
2023-02-03T13:02:05.082Z,11.40
2023-02-03T13:04:42.981Z,6.90
2023-02-03T13:08:04.683Z,8.30
2023-02-03T13:10:43.507Z,5.70
2023-02-03T13:13:17.745Z,6.80
2023-02-03T13:15:50.460Z,8.20
2023-02-03T13:18:38.497Z,6.00
2023-02-03T13:21:18.171Z,5.40
2023-02-03T13:23:48.002Z,5.30
2023-02-03T13:26:42.862Z,5.70
2023-02-03T13:30:01.501Z,6.10
2023-02-03T13:33:05.632Z,6.20
2023-02-03T13:35:55.265Z,4.40
2023-02-03T13:38:36.421Z,6.70
2023-02-03T13:41:19.342Z,4.20
2023-02-03T13:43:51.101Z,5.80
2023-02-03T13:46:27.592Z,4.90
2023-02-03T13:48:58.948Z,6.30
2023-02-03T13:51:37.181Z,5.50
2023-02-03T13:54:33.943Z,5.50
2023-02-03T13:57:30.999Z,5.20
2023-02-03T14:00:03.228Z,6.50
2023-02-03T14:02:52.730Z,6.00
2023-02-03T14:08:32.517Z,7.00
2023-02-03T14:11:39.826Z,5.80
2023-02-03T14:14:12.252Z,4.40
2023-02-03T14:16:54.132Z,4.80
2023-02-03T14:19:32.949Z,4.30
2023-02-03T14:22:10.246Z,3.60
2023-02-03T14:27:30.213Z,5.30
2023-02-03T14:30:14.527Z,6.20
2023-02-03T14:32:55.343Z,6.90
2023-02-03T14:35:35.346Z,7.20
2023-02-03T14:38:13.423Z,7.30
2023-02-03T14:41:03.934Z,6.20
2023-02-03T14:43:55.726Z,6.30
2023-02-03T19:01:04.277Z,15.50
2023-02-03T19:03:44.958Z,15.70
2023-02-03T19:06:24.211Z,16.10
2023-02-03T19:08:54.429Z,15.70
2023-02-03T19:11:30.917Z,15.10
2023-02-03T19:14:00.396Z,12.70
2023-02-03T19:16:39.923Z,13.50
2023-02-03T19:19:17.058Z,12.50
2023-02-03T19:22:00.830Z,10.90
2023-02-03T19:24:32.388Z,11.50
2023-02-03T19:27:05.243Z,14.90
2023-02-03T19:29:39.240Z,11.80
2023-02-03T19:32:17.184Z,13.90
2023-02-03T19:34:48.670Z,12.50
2023-02-03T19:37:33.723Z,14.30
2023-02-03T19:40:06.749Z,11.40
2023-02-03T19:43:04.052Z,14.50
2023-02-03T19:45:39.063Z,11.70
2023-02-03T19:48:36.219Z,11.60
2023-02-03T19:51:07.022Z,10.90
2023-02-03T19:53:41.613Z,11.30
2023-02-03T19:56:15.489Z,11.80
2023-02-03T19:58:51.971Z,10.70
2023-02-03T20:01:26.995Z,10.20
2023-02-03T20:04:00.769Z,10.70
2023-02-03T20:06:39.505Z,11.90
2023-02-03T20:09:15.221Z,11.80
2023-02-03T20:11:57.158Z,11.90
2023-02-03T20:14:36.466Z,16.40
2023-02-03T20:17:33.018Z,11.40
2023-02-03T20:20:04.322Z,14.10
2023-02-03T20:22:39.437Z,10.80
2023-02-03T20:25:13.810Z,12.60
2023-02-03T20:27:47.456Z,11.50
2023-02-03T20:30:29.411Z,11.50
2023-02-03T20:32:58.218Z,10.50
2023-02-03T20:35:33.172Z,11.40
2023-02-03T20:38:03.875Z,11.10
2023-02-03T20:40:42.308Z,12.90
2023-02-03T20:43:25.360Z,10.60
2023-02-03T20:45:58.509Z,12.80
2023-02-03T20:48:32.606Z,12.70
2023-02-03T20:51:06.832Z,16.50
2023-02-03T20:53:38.899Z,14.90
2023-02-03T20:56:19.211Z,18.80
2023-02-03T20:59:44.042Z,19.50
2023-02-03T21:05:46.406Z,18.50
2023-02-03T21:08:15.579Z,15.30
2023-02-03T21:10:45.817Z,14.40
2023-02-03T21:13:30.660Z,16.70
2023-02-03T21:16:02.033Z,16.60
2023-02-03T21:18:37.777Z,12.70
2023-02-03T21:21:16.934Z,15.90
2023-02-03T21:23:53.585Z,12.40
2023-02-03T21:26:33.613Z,13.80
2023-02-03T21:29:03.739Z,15.70
2023-02-03T21:31:36.684Z,10.40
2023-02-03T21:34:27.531Z,11.70
2023-02-03T21:36:59.624Z,11.50
2023-02-03T21:39:32.169Z,10.10
2023-02-03T21:42:42.700Z,13.40
2023-02-03T21:45:28.002Z,12.50
2023-02-03T21:48:02.625Z,11.00
2023-02-03T21:50:40.790Z,16.00
2023-02-03T21:53:38.078Z,17.70
2023-02-03T21:56:24.064Z,13.60
2023-02-03T21:58:58.972Z,16.40
2023-02-03T22:01:34.722Z,19.30
2023-02-03T22:04:06.009Z,18.20
2023-02-03T22:06:53.634Z,13.50
2023-02-03T22:09:26.251Z,17.80
2023-02-03T22:12:17.633Z,11.50
2023-02-03T22:14:47.948Z,13.80
2023-02-03T22:17:22.822Z,14.10
2023-02-03T22:19:52.417Z,11.70
2023-02-03T22:22:20.446Z,12.70
2023-02-03T22:24:54.880Z,11.90
2023-02-03T22:27:25.744Z,11.30
2023-02-03T22:29:56.073Z,15.00
2023-02-03T22:32:29.907Z,9.70
2023-02-03T22:34:59.279Z,11.30
2023-02-03T22:37:32.320Z,9.60
2023-02-03T22:40:10.288Z,9.40
2023-02-03T22:42:38.938Z,9.80
2023-02-03T22:45:09.811Z,10.80
2023-02-03T22:47:40.128Z,9.80
2023-02-03T22:50:10.105Z,9.50
2023-02-03T22:52:38.866Z,10.90
2023-02-03T22:55:09.409Z,11.10
2023-02-03T22:57:38.865Z,11.10
2023-02-03T23:00:10.427Z,12.20
2023-02-03T23:02:39.887Z,13.00
2023-02-03T23:05:09.891Z,9.60
2023-02-03T23:07:42.204Z,12.00
2023-02-03T23:10:15.649Z,10.70
2023-02-03T23:12:48.834Z,10.40
2023-02-03T23:17:49.995Z,10.70
2023-02-03T23:20:18.843Z,10.40
2023-02-03T23:22:49.052Z,12.10
2023-02-03T23:25:17.034Z,10.80
2023-02-03T23:27:45.374Z,11.50
2023-02-03T23:30:15.798Z,14.40
2023-02-03T23:32:45.745Z,12.80
2023-02-03T23:35:35.025Z,12.30
2023-02-03T23:38:08.267Z,13.80
2023-02-03T23:40:38.479Z,12.30
2023-02-03T23:43:06.769Z,11.80
2023-02-03T23:45:35.142Z,13.60
2023-02-03T23:48:04.043Z,12.70
2023-02-03T23:50:35.113Z,14.30
2023-02-03T23:53:05.929Z,12.70
2023-02-03T23:55:35.750Z,14.80
2023-02-03T23:58:05.379Z,15.20
